sensor_id;sensor_type;location;lat;lon;timestamp;P1;durP1;ratioP1;P2;durP2;ratioP2
45314;SDS011;31051;51.540;5.852;2023-05-23T08:14:44;11.5;;;5.5;;
45314;SDS011;31051;51.540;5.852;2023-05-23T08:27:43;9.3;;;5.4;;
45314;SDS011;31051;51.540;5.852;2023-05-23T08:40:42;8.0;;;4.8;;
45314;SDS011;31051;51.540;5.852;2023-05-23T08:53:42;9.8;;;4.7;;
45314;SDS011;31051;51.540;5.852;2023-05-23T09:06:41;8.3;;;4.6;;
45314;SDS011;31051;51.540;5.852;2023-05-23T09:19:41;8.7;;;3.9;;
45314;SDS011;31051;51.540;5.852;2023-05-23T09:32:40;6.6;;;3.2;;
45314;SDS011;31051;51.540;5.852;2023-05-23T09:45:39;8.4;;;3.1;;
45314;SDS011;31051;51.540;5.852;2023-05-23T09:58:39;9.6;;;3.1;;
45314;SDS011;31051;51.540;5.852;2023-05-23T10:11:38;9.2;;;3.4;;
45314;SDS011;31051;51.540;5.852;2023-05-23T10:24:37;9.2;;;3.1;;
45314;SDS011;31051;51.540;5.852;2023-05-23T10:37:37;10.2;;;3.4;;
45314;SDS011;31051;51.540;5.852;2023-05-23T10:50:36;10.3;;;3.6;;
45314;SDS011;31051;51.540;5.852;2023-05-23T11:03:36;9.9;;;3.6;;
45314;SDS011;31051;51.540;5.852;2023-05-23T11:16:35;10.3;;;3.5;;
45314;SDS011;31051;51.540;5.852;2023-05-23T11:29:33;11.2;;;3.7;;
45314;SDS011;31051;51.540;5.852;2023-05-23T11:42:23;11.0;;;3.9;;
45314;SDS011;31051;51.540;5.852;2023-05-23T11:55:22;9.1;;;3.6;;
45314;SDS011;31051;51.540;5.852;2023-05-23T12:08:21;9.8;;;3.6;;
45314;SDS011;31051;51.540;5.852;2023-05-23T12:21:21;11.6;;;3.8;;
45314;SDS011;31051;51.540;5.852;2023-05-23T12:34:19;8.8;;;3.3;;
45314;SDS011;31051;51.540;5.852;2023-05-23T12:47:07;10.6;;;3.6;;
45314;SDS011;31051;51.540;5.852;2023-05-23T12:59:57;9.4;;;3.4;;
45314;SDS011;31051;51.540;5.852;2023-05-23T13:12:56;10.3;;;3.3;;
45314;SDS011;31051;51.540;5.852;2023-05-23T13:25:56;11.7;;;3.6;;
45314;SDS011;31051;51.540;5.852;2023-05-23T13:38:54;8.5;;;3.3;;
45314;SDS011;31051;51.540;5.852;2023-05-23T13:51:43;9.3;;;3.1;;
45314;SDS011;31051;51.540;5.852;2023-05-23T14:04:43;8.0;;;2.8;;
45314;SDS011;31051;51.540;5.852;2023-05-23T14:17:42;9.6;;;3.2;;
45314;SDS011;31051;51.540;5.852;2023-05-23T14:30:40;8.9;;;3.0;;
45314;SDS011;31051;51.540;5.852;2023-05-23T14:43:30;9.0;;;3.1;;
45314;SDS011;31051;51.540;5.852;2023-05-23T14:56:29;8.9;;;2.9;;
45314;SDS011;31051;51.540;5.852;2023-05-23T15:09:28;10.4;;;3.0;;
45314;SDS011;31051;51.540;5.852;2023-05-23T15:22:27;9.9;;;3.2;;
45314;SDS011;31051;51.540;5.852;2023-05-23T15:35:16;8.8;;;3.0;;
45314;SDS011;31051;51.540;5.852;2023-05-23T15:48:15;8.9;;;3.0;;
45314;SDS011;31051;51.540;5.852;2023-05-23T16:01:15;9.3;;;3.1;;
45314;SDS011;31051;51.540;5.852;2023-05-23T16:14:14;9.7;;;2.9;;
45314;SDS011;31051;51.540;5.852;2023-05-23T16:27:14;8.9;;;3.0;;
45314;SDS011;31051;51.540;5.852;2023-05-23T16:40:13;9.2;;;3.0;;
45314;SDS011;31051;51.540;5.852;2023-05-23T16:53:12;8.8;;;2.9;;
45314;SDS011;31051;51.540;5.852;2023-05-23T17:06:12;8.4;;;2.7;;
45314;SDS011;31051;51.540;5.852;2023-05-23T17:19:11;9.0;;;2.8;;
45314;SDS011;31051;51.540;5.852;2023-05-23T17:32:10;9.6;;;2.8;;
45314;SDS011;31051;51.540;5.852;2023-05-23T17:45:10;9.1;;;2.8;;
45314;SDS011;31051;51.540;5.852;2023-05-23T17:58:09;9.8;;;2.8;;
45314;SDS011;31051;51.540;5.852;2023-05-23T18:11:09;7.8;;;2.6;;
45314;SDS011;31051;51.540;5.852;2023-05-23T18:24:08;9.3;;;2.7;;
45314;SDS011;31051;51.540;5.852;2023-05-23T18:37:07;9.4;;;2.9;;
45314;SDS011;31051;51.540;5.852;2023-05-23T18:50:07;14.1;;;2.9;;
45314;SDS011;31051;51.540;5.852;2023-05-23T19:03:06;9.4;;;2.8;;
45314;SDS011;31051;51.540;5.852;2023-05-23T19:16:05;10.2;;;3.0;;
45314;SDS011;31051;51.540;5.852;2023-05-23T19:29:05;9.4;;;2.8;;
45314;SDS011;31051;51.540;5.852;2023-05-23T19:42:04;9.3;;;2.8;;
45314;SDS011;31051;51.540;5.852;2023-05-23T19:55:03;9.0;;;2.8;;
45314;SDS011;31051;51.540;5.852;2023-05-23T20:08:03;9.5;;;2.7;;
45314;SDS011;31051;51.540;5.852;2023-05-23T20:21:02;10.1;;;2.8;;
45314;SDS011;31051;51.540;5.852;2023-05-23T20:34:01;9.5;;;2.6;;
45314;SDS011;31051;51.540;5.852;2023-05-23T20:47:01;10.0;;;2.7;;
45314;SDS011;31051;51.540;5.852;2023-05-23T21:00:00;9.7;;;2.7;;
45314;SDS011;31051;51.540;5.852;2023-05-23T21:12:59;10.5;;;2.9;;
45314;SDS011;31051;51.540;5.852;2023-05-23T21:25:58;9.8;;;2.8;;
45314;SDS011;31051;51.540;5.852;2023-05-23T21:38:58;9.6;;;2.8;;
45314;SDS011;31051;51.540;5.852;2023-05-23T21:51:57;9.5;;;3.0;;
45314;SDS011;31051;51.540;5.852;2023-05-23T22:04:56;9.9;;;2.9;;
45314;SDS011;31051;51.540;5.852;2023-05-23T22:17:55;11.2;;;3.0;;
45314;SDS011;31051;51.540;5.852;2023-05-23T22:30:55;10.4;;;3.0;;
45314;SDS011;31051;51.540;5.852;2023-05-23T22:43:54;8.8;;;2.8;;
45314;SDS011;31051;51.540;5.852;2023-05-23T22:56:53;7.1;;;2.5;;
45314;SDS011;31051;51.540;5.852;2023-05-23T23:09:52;8.3;;;2.7;;
45314;SDS011;31051;51.540;5.852;2023-05-23T23:22:52;8.1;;;2.7;;
45314;SDS011;31051;51.540;5.852;2023-05-23T23:35:51;6.3;;;2.4;;
45314;SDS011;31051;51.540;5.852;2023-05-23T23:48:50;6.0;;;2.5;;
